Airfield :
LOGIN :

Register | Disclaimer

   EN    FR    IT 

 










Legend :    VFR   Marginal VFR   IFR   Intensive IFR   Very Intensive IFR
Visi :
Ceiling :
>= 8 km
>= 3000ft
5 to 8 km
1000 to 3000 ft
1500m to 5 km
500 to 1000 ft
800 to 1500m
200 to 500 ft
< 800m
< 200 ft
Symbols :   Thunderstorms  Fog  Heavy snow  Heavy precipitations  Wind > 20 kt
SIGMETs :     Misc.  Thunderstorms  Icing  Turbulence  Mountain Waves  Volcanic Ashes







- Airport Elevation : 41 ft


LIRE - Pratica di Mare Air Base Pomezia

CURRENT METAR :
  • 240055Z 04005KT CAVOK 07/06 Q1027 RMK SKC VIS MIN 9999 WIND THR13 02004KT WIND THR31 01005KT BLU

EXPIRED METARs :
  • 232355Z 01005KT CAVOK 08/08 Q1027 RMK SKC VIS MIN 9999 WIND THR13 02005KT WIND THR31 02003KT BLU
  • 232255Z 06002KT 9999 FEW020 10/09 Q1027 RMK FEW VIS MIN 9999 WIND THR13 04002KT WIND THR31 04002KT BLU

TAF TAF LIRE
Valid from the 24 at 00:00 until the 24 at 09:00 UTC


232300Z 2400/2409 03008KT 9999 FEW020
TEMPO 2407/2409 SCT030
No reported NOTAMs for that airfield.
2 SIGMETs reported for the Roma FIR (LIRR) :
 
Severe turbulence
LIRR SIGMET 8 VALID 240300/240600 LIIB
LIRR ROMA FIR SEV TURB FCST WI N4125 E01421 - N3626 E01340 - N3630 E01859 - N3853 E01856 - N3851 E01711 - N3856 E01630 - N3913 E01617 - N4110 E01509 - N4125 E01421 FL220/390 MOV E WKN=
Severe turbulence
LIRR SIGMET 7 VALID 232300/240300 LIIB
LIRR ROMA FIR SEV TURB FCST E OF LINE N4255 E01303 - N3629 E01320 FL220/390 MOV E WKN=



MET'MAP, your aeronautical weather chart ! - Copyright ORBIFLY December 2007 - Disclaimer

ORBIFLY MET'MAP TEAM :

Programming & Development : Alexandra Zaïnal
Concept & Development : Baudouin d'Aumeries
Co-Development & Prog : Marc-Olivier Méhu
Technical & hardware support : Manuel Goepfert

Contact : metmap@orbifly.com




SOURCES & CREDITS :

   NOAA